createdAt,value
2018-05-08T00:01:39.330Z,7.00
2018-05-08T00:04:10.985Z,7.33
2018-05-08T00:06:43.347Z,7.00
2018-05-08T00:09:14.821Z,6.00
2018-05-08T00:11:49.180Z,6.29
2018-05-08T00:14:20.668Z,6.00
2018-05-08T00:16:52.963Z,7.75
2018-05-08T00:19:24.841Z,7.00
2018-05-08T00:21:57.109Z,6.40
2018-05-08T00:24:35.904Z,7.75
2018-05-08T00:27:09.866Z,7.00
2018-05-08T00:29:42.116Z,6.00
2018-05-08T00:32:15.011Z,6.00
2018-05-08T00:34:47.314Z,6.20
2018-05-08T00:37:21.639Z,5.71
2018-05-08T00:39:53.315Z,5.67
2018-05-08T00:42:24.853Z,6.33
2018-05-08T00:44:58.871Z,7.00
2018-05-08T00:47:33.856Z,6.20
2018-05-08T00:50:11.916Z,7.00
2018-05-08T00:52:45.098Z,5.80
2018-05-08T00:55:17.211Z,6.67
2018-05-08T00:57:48.742Z,6.67
2018-05-08T01:00:21.967Z,7.20
2018-05-08T01:02:53.301Z,6.33
2018-05-08T01:05:26.495Z,6.00
2018-05-08T01:08:00.456Z,6.86
2018-05-08T01:10:34.332Z,6.67
2018-05-08T01:13:06.767Z,5.40
2018-05-08T01:15:43.478Z,5.80
2018-05-08T01:18:19.798Z,6.00
2018-05-08T01:20:53.815Z,7.80
2018-05-08T01:23:26.109Z,6.00
2018-05-08T01:26:04.838Z,6.60
2018-05-08T01:28:38.342Z,5.00
2018-05-08T01:31:09.784Z,5.00
2018-05-08T01:33:43.098Z,6.00
2018-05-08T01:36:15.757Z,5.20
2018-05-08T01:38:50.570Z,5.00
2018-05-08T01:41:24.593Z,6.43
2018-05-08T01:43:57.219Z,7.00
2018-05-08T01:46:28.698Z,5.00
2018-05-08T01:48:59.935Z,5.00
2018-05-08T01:51:34.288Z,6.43
2018-05-08T01:54:08.267Z,5.00
2018-05-08T01:56:40.579Z,5.80
2018-05-08T01:59:12.074Z,4.00
2018-05-08T02:01:46.631Z,6.20
2018-05-08T02:04:20.588Z,5.00
2018-05-08T02:06:53.040Z,4.00
2018-05-08T02:09:26.090Z,7.00
2018-05-08T02:11:58.128Z,5.00
2018-05-08T02:14:31.305Z,4.00
2018-05-08T02:17:03.591Z,4.60
2018-05-08T02:19:39.956Z,4.86
2018-05-08T02:22:14.371Z,5.00
2018-05-08T02:24:48.745Z,5.00
2018-05-08T02:27:22.667Z,5.00
2018-05-08T02:29:54.591Z,5.00
2018-05-08T02:32:26.071Z,5.00
2018-05-08T02:34:58.496Z,5.40
2018-05-08T02:37:33.303Z,5.00
2018-05-08T02:40:07.312Z,5.00
2018-05-08T02:42:40.531Z,4.33
2018-05-08T02:45:15.407Z,4.80
2018-05-08T02:47:49.451Z,5.00
2018-05-08T02:50:23.926Z,4.43
2018-05-08T02:52:57.266Z,5.00
2018-05-08T02:55:31.466Z,5.00
2018-05-08T02:58:05.199Z,4.57
2018-05-08T03:00:39.017Z,5.17
2018-05-08T03:03:12.327Z,4.50
2018-05-08T03:05:44.829Z,5.40
2018-05-08T03:08:17.878Z,5.33
2018-05-08T03:10:53.319Z,5.29
2018-05-08T03:13:27.291Z,6.71
2018-05-08T03:16:00.999Z,5.33
2018-05-08T03:18:33.510Z,6.67
2018-05-08T03:21:04.951Z,5.00
2018-05-08T03:23:38.165Z,4.00
2018-05-08T03:26:13.441Z,5.57
2018-05-08T03:28:45.833Z,5.40
2018-05-08T03:31:21.318Z,5.29
2018-05-08T03:33:54.606Z,4.17
2018-05-08T03:36:29.617Z,6.57
2018-05-08T03:39:03.704Z,7.00
2018-05-08T03:41:38.059Z,5.29
2018-05-08T03:44:10.354Z,5.40
2018-05-08T03:46:42.640Z,5.40
2018-05-08T03:49:14.874Z,5.25
2018-05-08T03:51:46.297Z,5.33
2018-05-08T03:54:18.841Z,6.60
2018-05-08T03:56:50.177Z,5.33
2018-05-08T03:59:21.305Z,4.67
2018-05-08T04:02:03.676Z,6.00
2018-05-08T04:05:52.054Z,6.00
2018-05-08T04:08:24.763Z,7.00
2018-05-08T04:10:56.987Z,6.00
2018-05-08T04:13:30.166Z,5.67
2018-05-08T04:16:02.398Z,6.00
2018-05-08T04:18:34.091Z,4.67
2018-05-08T04:21:07.332Z,6.00
2018-05-08T04:23:39.861Z,6.20
2018-05-08T04:26:12.151Z,5.40
2018-05-08T04:28:45.371Z,5.40
2018-05-08T04:31:17.785Z,4.80
2018-05-08T04:33:50.935Z,4.33
2018-05-08T04:36:24.090Z,5.00
2018-05-08T04:38:56.385Z,5.00
2018-05-08T04:41:28.666Z,5.00
2018-05-08T04:44:00.926Z,6.20
2018-05-08T04:46:33.254Z,5.40
2018-05-08T04:49:05.543Z,6.20
2018-05-08T04:51:37.959Z,5.67
2018-05-08T04:54:10.165Z,5.00
2018-05-08T04:56:43.121Z,4.20
2018-05-08T04:59:15.479Z,4.20
2018-05-08T05:01:49.428Z,5.71
2018-05-08T05:04:22.646Z,5.67
2018-05-08T05:06:54.941Z,6.40
2018-05-08T05:09:26.503Z,5.33
2018-05-08T05:12:00.479Z,7.14
2018-05-08T05:14:33.910Z,4.20
2018-05-08T05:17:07.309Z,5.00
2018-05-08T05:19:40.555Z,5.00
2018-05-08T05:22:14.315Z,5.00
2018-05-08T05:24:46.541Z,4.80
2018-05-08T05:27:19.039Z,5.20
2018-05-08T05:29:52.634Z,5.50
2018-05-08T05:32:26.025Z,5.00
2018-05-08T05:35:00.431Z,5.86
2018-05-08T05:37:32.775Z,6.00
2018-05-08T05:40:05.071Z,5.40
2018-05-08T05:42:38.341Z,4.33
2018-05-08T05:45:14.906Z,4.43
2018-05-08T05:47:47.193Z,6.00
2018-05-08T05:50:20.559Z,5.00
2018-05-08T05:52:54.239Z,5.00
2018-05-08T05:55:26.816Z,5.80
2018-05-08T05:58:00.871Z,5.14
2018-05-08T06:00:33.656Z,5.60
2018-05-08T06:03:07.004Z,5.67
2018-05-08T06:05:42.278Z,6.14
2018-05-08T06:08:15.447Z,5.33
2018-05-08T06:10:48.488Z,6.00
2018-05-08T06:13:21.759Z,5.33
2018-05-08T06:15:55.381Z,5.67
2018-05-08T06:18:27.856Z,6.00
2018-05-08T06:21:01.066Z,4.33
2018-05-08T06:23:33.366Z,6.00
2018-05-08T06:26:04.770Z,6.00
2018-05-08T06:28:38.596Z,5.00
2018-05-08T06:31:11.379Z,5.00
2018-05-08T06:33:44.622Z,4.33
2018-05-08T06:36:18.306Z,5.17
2018-05-08T06:38:49.945Z,7.00
2018-05-08T06:41:22.268Z,6.40
2018-05-08T06:43:55.527Z,6.00
2018-05-08T06:46:26.945Z,6.00
2018-05-08T06:49:00.232Z,6.00
2018-05-08T06:51:32.236Z,7.00
2018-05-08T06:54:06.175Z,6.43
2018-05-08T06:56:41.147Z,6.57
2018-05-08T06:59:14.467Z,6.00
2018-05-08T07:01:48.226Z,4.00
2018-05-08T07:04:21.615Z,6.00
2018-05-08T07:06:54.867Z,6.83
2018-05-08T07:09:28.722Z,5.67
2018-05-08T07:12:02.413Z,6.00
2018-05-08T07:14:35.709Z,4.67
2018-05-08T07:17:08.443Z,5.40
2018-05-08T07:19:41.828Z,4.00
2018-05-08T07:22:15.282Z,5.67
2018-05-08T07:24:46.782Z,4.33
2018-05-08T07:27:19.155Z,4.00
2018-05-08T07:29:50.774Z,7.00
2018-05-08T07:32:24.515Z,5.00
2018-05-08T07:34:57.515Z,5.40
2018-05-08T07:37:38.601Z,6.00
2018-05-08T07:40:13.555Z,4.17
2018-05-08T07:42:46.430Z,7.00
2018-05-08T07:45:19.871Z,5.33
2018-05-08T07:47:54.462Z,4.57
2018-05-08T07:50:27.700Z,5.67
2018-05-08T07:53:00.143Z,4.80
2018-05-08T07:55:33.265Z,5.33
2018-05-08T07:58:07.750Z,5.00
2018-05-08T08:00:41.713Z,4.71
2018-05-08T08:03:14.463Z,5.00
2018-05-08T08:05:48.259Z,5.00
2018-05-08T08:08:21.533Z,4.33
2018-05-08T08:10:54.807Z,6.40
2018-05-08T08:13:28.394Z,5.00
2018-05-08T08:15:59.763Z,5.00
2018-05-08T08:18:32.145Z,5.40
2018-05-08T08:21:06.393Z,5.00
2018-05-08T08:23:40.418Z,7.57
2018-05-08T08:26:13.410Z,6.40
2018-05-08T08:28:46.783Z,5.50
2018-05-08T08:31:19.426Z,6.40
2018-05-08T08:33:53.493Z,7.43
2018-05-08T08:36:25.794Z,8.00
2018-05-08T08:38:59.990Z,5.00
2018-05-08T08:41:32.460Z,7.00
2018-05-08T08:44:07.705Z,6.57
2018-05-08T08:46:41.363Z,7.80
2018-05-08T08:49:13.011Z,7.33
2018-05-08T08:51:44.407Z,7.33
2018-05-08T08:54:16.782Z,7.40
2018-05-08T08:56:48.350Z,7.00
2018-05-08T08:59:22.143Z,5.33
2018-05-08T09:02:03.685Z,7.00
2018-05-08T09:04:35.626Z,6.33
2018-05-08T09:07:08.027Z,6.33
2018-05-08T09:09:40.367Z,7.25
2018-05-08T09:12:12.813Z,8.00
2018-05-08T09:14:47.136Z,7.86
2018-05-08T09:17:20.867Z,6.40
2018-05-08T09:19:54.065Z,7.60
2018-05-08T09:22:26.414Z,6.20
2018-05-08T09:25:01.187Z,6.86
2018-05-08T09:27:34.224Z,8.25
2018-05-08T09:30:10.226Z,6.00
2018-05-08T09:32:42.854Z,8.00
2018-05-08T09:35:18.414Z,6.29
2018-05-08T09:37:51.915Z,7.00
2018-05-08T09:40:28.385Z,6.71
2018-05-08T09:43:01.484Z,7.60
2018-05-08T09:45:32.934Z,6.33
2018-05-08T09:48:06.971Z,5.43
2018-05-08T09:50:41.340Z,7.00
2018-05-08T09:55:42.808Z,6.00
2018-05-08T09:58:15.079Z,6.60
2018-05-08T10:00:48.644Z,8.80
2018-05-08T10:04:19.639Z,6.00
2018-05-08T10:07:04.402Z,5.86
2018-05-08T10:09:39.830Z,6.00
2018-05-08T10:12:12.210Z,6.25
2018-05-08T10:14:44.652Z,6.00
2018-05-08T10:17:18.636Z,6.00
2018-05-08T10:19:50.926Z,5.60
2018-05-08T10:22:23.290Z,6.40
2018-05-08T10:24:55.621Z,6.00
2018-05-08T10:27:28.167Z,7.00
2018-05-08T10:30:04.657Z,6.00
2018-05-08T10:32:36.739Z,6.00
2018-05-08T10:35:11.531Z,5.14
2018-05-08T10:37:43.570Z,6.00
2018-05-08T10:40:15.916Z,7.00
2018-05-08T10:42:49.773Z,6.60
2018-05-08T10:45:25.479Z,6.43
2018-05-08T10:47:57.085Z,6.33
2018-05-08T10:50:30.335Z,5.00
2018-05-08T10:53:04.520Z,6.00
2018-05-08T10:55:36.417Z,6.67
2018-05-08T10:58:12.590Z,8.00
2018-05-08T11:00:47.267Z,6.00
2018-05-08T11:03:21.071Z,5.80
2018-05-08T11:05:54.313Z,5.83
2018-05-08T11:08:28.231Z,6.43
2018-05-08T11:11:01.778Z,5.83
2018-05-08T11:13:35.060Z,6.50
2018-05-08T11:16:07.331Z,6.00
2018-05-08T11:18:38.997Z,6.00
2018-05-08T11:21:12.625Z,5.50
2018-05-08T11:23:46.641Z,6.29
2018-05-08T11:26:20.308Z,5.67
2018-05-08T11:28:52.994Z,6.00
2018-05-08T11:31:27.042Z,6.50
2018-05-08T11:34:00.336Z,6.17
2018-05-08T11:36:33.943Z,5.00
2018-05-08T11:39:05.978Z,6.00
2018-05-08T11:41:39.392Z,5.00
2018-05-08T11:44:12.696Z,5.33
2018-05-08T11:46:45.856Z,4.50
2018-05-08T11:49:20.547Z,5.50
2018-05-08T11:51:53.732Z,5.00
2018-05-08T11:54:27.832Z,3.83
2018-05-08T11:57:01.146Z,5.00
2018-05-08T11:59:34.502Z,4.83
2018-05-08T12:02:08.019Z,4.33
2018-05-08T12:04:41.222Z,4.67
2018-05-08T12:07:14.428Z,4.67
2018-05-08T12:09:47.926Z,5.33
2018-05-08T12:12:21.166Z,5.00
2018-05-08T12:14:54.689Z,5.00
2018-05-08T12:17:28.716Z,5.00
2018-05-08T12:20:02.375Z,4.50
2018-05-08T12:22:36.494Z,5.00
2018-05-08T12:25:11.879Z,5.00
2018-05-08T12:27:47.232Z,4.33
2018-05-08T12:30:21.793Z,6.00
2018-05-08T12:33:01.840Z,4.67
2018-05-08T12:35:35.010Z,5.00
2018-05-08T12:38:09.741Z,5.00
2018-05-08T12:40:42.910Z,4.83
2018-05-08T12:43:16.405Z,4.83
2018-05-08T12:45:49.652Z,4.83
2018-05-08T12:48:22.978Z,5.00
2018-05-08T12:50:57.015Z,4.83
2018-05-08T12:53:30.285Z,4.00
2018-05-08T12:56:03.788Z,4.17
2018-05-08T12:58:37.285Z,6.00
2018-05-08T13:01:12.069Z,4.17
2018-05-08T13:03:45.292Z,5.17
2018-05-08T13:06:18.762Z,4.00
2018-05-08T13:08:51.945Z,5.00
2018-05-08T13:11:25.377Z,4.00
2018-05-08T13:13:59.708Z,4.00
2018-05-08T13:16:32.993Z,5.00
2018-05-08T13:19:06.878Z,4.67
2018-05-08T13:21:40.211Z,4.00
2018-05-08T13:24:13.811Z,4.00
2018-05-08T13:26:48.074Z,5.00
2018-05-08T13:29:25.190Z,3.83
2018-05-08T13:31:58.606Z,3.00
2018-05-08T13:34:32.919Z,4.00
2018-05-08T13:37:06.351Z,4.17
2018-05-08T13:39:39.863Z,4.83
2018-05-08T13:42:13.082Z,3.33
2018-05-08T13:44:46.284Z,4.83
2018-05-08T13:47:19.529Z,4.67
2018-05-08T13:49:53.099Z,3.83
2018-05-08T13:52:28.351Z,4.00
2018-05-08T13:55:02.926Z,4.00
2018-05-08T13:57:36.647Z,4.17
2018-05-08T14:00:10.167Z,4.67
2018-05-08T14:02:45.233Z,4.17
2018-05-08T14:05:24.564Z,4.00
2018-05-08T14:07:57.880Z,3.50
2018-05-08T14:10:31.331Z,4.00
2018-05-08T14:13:04.916Z,4.33
2018-05-08T14:15:39.547Z,4.17
2018-05-08T14:18:12.934Z,4.00
2018-05-08T14:20:46.112Z,4.50
2018-05-08T14:23:19.346Z,4.33
2018-05-08T14:25:53.916Z,4.00
2018-05-08T14:28:27.823Z,3.67
2018-05-08T14:31:01.096Z,3.67
2018-05-08T14:33:35.048Z,4.33
2018-05-08T14:36:08.620Z,4.00
2018-05-08T14:38:41.889Z,3.67
2018-05-08T14:41:15.211Z,3.67
2018-05-08T14:43:48.372Z,4.50
2018-05-08T14:46:21.917Z,4.17
2018-05-08T14:48:55.099Z,4.33
2018-05-08T14:51:28.357Z,5.00
2018-05-08T14:54:01.625Z,5.00
2018-05-08T14:56:35.119Z,4.67
2018-05-08T14:59:08.454Z,4.50
2018-05-08T15:01:42.342Z,4.50
2018-05-08T15:04:15.694Z,4.83
2018-05-08T15:06:49.287Z,4.50
2018-05-08T15:09:23.567Z,5.00
2018-05-08T15:11:57.328Z,4.67
2018-05-08T15:14:30.845Z,5.00
2018-05-08T15:17:06.571Z,4.50
2018-05-08T15:19:39.933Z,5.50
2018-05-08T15:22:13.688Z,4.00
2018-05-08T15:24:47.396Z,5.00
2018-05-08T15:27:20.411Z,4.33
2018-05-08T15:29:54.359Z,5.33
2018-05-08T15:32:33.417Z,4.00
2018-05-08T15:35:06.810Z,4.83
2018-05-08T15:37:40.060Z,6.00
2018-05-08T15:40:17.543Z,5.50
2018-05-08T15:42:50.776Z,5.83
2018-05-08T15:45:24.133Z,5.50
2018-05-08T15:47:57.311Z,4.00
2018-05-08T15:50:32.144Z,4.67
2018-05-08T15:53:05.352Z,4.50
2018-05-08T15:55:40.402Z,3.67
2018-05-08T15:58:25.203Z,4.50
2018-05-08T16:01:01.896Z,3.33
2018-05-08T16:03:36.157Z,3.50
2018-05-08T16:06:09.805Z,5.00
2018-05-08T16:08:45.210Z,4.17
2018-05-08T16:11:18.448Z,4.00
2018-05-08T16:13:51.692Z,4.33
2018-05-08T16:16:24.911Z,3.83
2018-05-08T16:18:58.179Z,3.33
2018-05-08T16:21:32.076Z,3.50
2018-05-08T16:24:05.385Z,4.17
2018-05-08T16:26:38.619Z,4.67
2018-05-08T16:29:12.084Z,5.17
2018-05-08T16:31:45.720Z,4.67
2018-05-08T16:34:19.432Z,3.83
2018-05-08T16:36:52.675Z,5.00
2018-05-08T16:39:26.440Z,4.83
2018-05-08T16:41:59.639Z,4.00
2018-05-08T16:44:33.107Z,3.83
2018-05-08T16:47:06.278Z,4.17
2018-05-08T16:49:39.967Z,4.00
2018-05-08T16:52:13.381Z,4.83
2018-05-08T16:54:46.576Z,4.33
2018-05-08T16:57:20.603Z,4.00
2018-05-08T16:59:53.839Z,5.50
2018-05-08T17:02:28.112Z,4.67
2018-05-08T17:05:01.281Z,4.50
2018-05-08T17:07:35.007Z,4.67
2018-05-08T17:10:08.829Z,4.00
2018-05-08T17:12:42.300Z,4.50
2018-05-08T17:15:16.694Z,4.00
2018-05-08T17:17:50.842Z,5.00
2018-05-08T17:20:24.164Z,4.17
2018-05-08T17:22:57.644Z,4.17
2018-05-08T17:25:32.184Z,4.50
2018-05-08T17:28:05.489Z,4.33
2018-05-08T17:30:38.760Z,4.00
2018-05-08T17:33:12.221Z,4.67
2018-05-08T17:35:46.624Z,5.00
2018-05-08T17:38:19.804Z,5.00
2018-05-08T17:40:52.967Z,5.17
2018-05-08T17:43:26.211Z,5.00
2018-05-08T17:45:59.998Z,6.00
2018-05-08T17:48:34.182Z,5.50
2018-05-08T17:51:11.212Z,4.83
2018-05-08T17:53:45.273Z,4.33
2018-05-08T17:56:18.940Z,5.00
2018-05-08T17:58:53.397Z,5.00
2018-05-08T18:01:27.902Z,5.83
2018-05-08T18:04:01.466Z,4.67
2018-05-08T18:06:35.784Z,5.50
2018-05-08T18:09:09.172Z,4.50
2018-05-08T18:11:42.891Z,4.33
2018-05-08T18:14:15.539Z,5.80
2018-05-08T18:16:48.842Z,5.00
2018-05-08T18:19:22.103Z,5.67
2018-05-08T18:21:55.616Z,4.00
2018-05-08T18:24:28.796Z,5.00
2018-05-08T18:27:02.814Z,5.57
2018-05-08T18:29:36.107Z,4.83
2018-05-08T18:32:11.810Z,4.83
2018-05-08T18:34:45.027Z,4.17
2018-05-08T18:37:19.088Z,5.71
2018-05-08T18:39:54.007Z,6.86
2018-05-08T18:42:29.322Z,5.29
2018-05-08T18:45:05.783Z,5.29
2018-05-08T18:47:40.290Z,7.00
2018-05-08T18:50:11.778Z,6.33
2018-05-08T18:52:45.858Z,5.00
2018-05-08T18:55:19.992Z,7.29
2018-05-08T18:57:51.407Z,7.33
2018-05-08T19:00:22.821Z,7.00
2018-05-08T19:02:54.407Z,8.00
2018-05-08T19:05:26.820Z,7.00
2018-05-08T19:07:59.255Z,7.00
2018-05-08T19:10:30.597Z,8.00
2018-05-08T19:13:06.731Z,7.00
2018-05-08T19:15:42.187Z,7.00
2018-05-08T19:18:13.699Z,6.67
2018-05-08T19:20:45.105Z,8.00
2018-05-08T19:23:16.553Z,8.00
2018-05-08T19:25:48.220Z,8.00
2018-05-08T19:28:24.639Z,7.75
2018-05-08T19:30:56.944Z,7.20
2018-05-08T19:33:28.694Z,9.00
2018-05-08T19:38:07.634Z,6.00
2018-05-08T19:40:39.209Z,7.33
2018-05-08T19:43:11.579Z,6.60
2018-05-08T19:45:43.059Z,7.00
2018-05-08T19:48:15.315Z,7.00
2018-05-08T19:50:49.488Z,7.00
2018-05-08T19:53:20.920Z,7.00
2018-05-08T19:55:52.450Z,7.00
2018-05-08T19:58:24.191Z,7.33
2018-05-08T20:00:56.252Z,6.67
2018-05-08T20:03:27.425Z,6.33
2018-05-08T20:05:58.766Z,7.00
2018-05-08T20:08:31.140Z,7.00
2018-05-08T20:11:03.936Z,6.00
2018-05-08T20:13:36.298Z,7.00
2018-05-08T20:16:08.730Z,7.00
2018-05-08T20:18:41.724Z,6.60
2018-05-08T20:21:13.985Z,6.00
2018-05-08T20:23:46.327Z,5.60
2018-05-08T20:26:19.434Z,6.50
2018-05-08T20:28:53.161Z,7.00
2018-05-08T20:31:24.623Z,5.00
2018-05-08T20:33:55.998Z,5.33
2018-05-08T20:36:30.499Z,6.00
2018-05-08T20:39:02.927Z,6.00
2018-05-08T20:41:35.274Z,8.25
2018-05-08T20:44:07.983Z,6.40
2018-05-08T20:46:39.358Z,7.00
2018-05-08T20:49:12.448Z,6.40
2018-05-08T20:51:44.075Z,6.00
2018-05-08T20:54:16.291Z,7.00
2018-05-08T20:56:47.678Z,5.33
2018-05-08T20:59:20.032Z,7.20
2018-05-08T21:01:52.443Z,6.00
2018-05-08T21:04:23.819Z,6.00
2018-05-08T21:06:56.522Z,6.80
2018-05-08T21:09:29.423Z,6.00
2018-05-08T21:12:00.875Z,6.33
2018-05-08T21:14:33.491Z,7.00
2018-05-08T21:17:06.378Z,6.00
2018-05-08T21:19:38.411Z,7.00
2018-05-08T21:22:11.169Z,6.00
2018-05-08T21:24:43.547Z,7.00
2018-05-08T21:27:15.756Z,7.25
2018-05-08T21:29:52.086Z,8.25
2018-05-08T21:32:23.848Z,7.33
2018-05-08T21:34:56.204Z,6.00
2018-05-08T21:37:28.549Z,7.00
2018-05-08T21:40:00.042Z,6.00
2018-05-08T21:42:32.500Z,7.00
2018-05-08T21:45:08.286Z,5.14
2018-05-08T21:47:39.931Z,6.00
2018-05-08T21:50:12.239Z,7.00
2018-05-08T21:52:45.288Z,6.00
2018-05-08T21:55:17.582Z,6.00
2018-05-08T21:57:49.935Z,7.00
2018-05-08T22:00:23.880Z,4.71
2018-05-08T22:02:58.044Z,6.43
2018-05-08T22:05:30.616Z,8.00
2018-05-08T22:08:03.109Z,6.40
2018-05-08T22:10:37.188Z,6.00
2018-05-08T22:13:12.939Z,7.40
2018-05-08T22:15:44.341Z,7.33
2018-05-08T22:18:16.701Z,7.25
2018-05-08T22:20:48.218Z,6.33
2018-05-08T22:23:20.543Z,7.00
2018-05-08T22:25:52.464Z,8.00
2018-05-08T22:28:23.907Z,9.00
2018-05-08T22:30:55.747Z,7.00
2018-05-08T22:33:28.109Z,6.25
2018-05-08T22:36:00.966Z,8.00
2018-05-08T22:38:32.467Z,8.67
2018-05-08T22:41:03.871Z,8.00
2018-05-08T22:43:35.959Z,7.67
2018-05-08T22:46:07.335Z,6.67
2018-05-08T22:48:38.793Z,8.00
2018-05-08T22:51:11.145Z,6.25
2018-05-08T22:53:43.124Z,9.25
2018-05-08T22:56:15.072Z,7.67
2018-05-08T22:58:46.435Z,8.00
2018-05-08T23:01:19.474Z,8.00
2018-05-08T23:03:51.751Z,8.25
2018-05-08T23:06:23.611Z,9.00
2018-05-08T23:08:57.345Z,9.00
2018-05-08T23:11:29.050Z,9.00
2018-05-08T23:14:01.321Z,9.00
2018-05-08T23:16:34.246Z,8.80
2018-05-08T23:19:06.231Z,9.00
2018-05-08T23:21:38.314Z,8.00
2018-05-08T23:24:10.144Z,8.00
2018-05-08T23:26:41.973Z,8.67
2018-05-08T23:29:13.722Z,9.00
2018-05-08T23:31:45.139Z,9.00
2018-05-08T23:34:16.998Z,10.00
2018-05-08T23:36:49.057Z,9.33
2018-05-08T23:39:20.657Z,9.00
2018-05-08T23:41:52.325Z,8.33
2018-05-08T23:44:23.672Z,10.00
2018-05-08T23:46:55.049Z,10.00
2018-05-08T23:49:26.425Z,10.00
2018-05-08T23:51:58.298Z,9.00
2018-05-08T23:56:53.755Z,9.67
2018-05-08T23:59:25.408Z,9.00
